createdAt,value
2022-10-20T00:01:29.468Z,21.90
2022-10-20T00:03:58.977Z,21.80
2022-10-20T00:06:30.144Z,21.90
2022-10-20T00:09:03.134Z,22.00
2022-10-20T00:11:32.714Z,22.00
2022-10-20T00:14:02.938Z,22.10
2022-10-20T00:16:34.054Z,21.90
2022-10-20T00:19:03.058Z,21.80
2022-10-20T00:21:33.226Z,21.80
2022-10-20T00:24:03.886Z,21.90
2022-10-20T00:26:34.315Z,21.90
2022-10-20T00:29:05.222Z,21.80
2022-10-20T00:31:34.393Z,21.80
2022-10-20T00:34:03.334Z,22.00
2022-10-20T00:36:32.445Z,22.00
2022-10-20T00:39:04.691Z,21.90
2022-10-20T00:41:35.166Z,22.10
2022-10-20T00:44:25.495Z,22.10
2022-10-20T00:46:54.625Z,22.00
2022-10-20T00:49:26.601Z,22.10
2022-10-20T00:51:56.089Z,22.20
2022-10-20T00:54:28.516Z,22.20
2022-10-20T00:56:59.723Z,22.10
2022-10-20T00:59:33.061Z,22.10
2022-10-20T01:02:03.585Z,22.20
2022-10-20T01:04:33.270Z,22.10
2022-10-20T01:07:02.845Z,22.10
2022-10-20T01:09:34.697Z,22.10
2022-10-20T01:12:14.859Z,22.10
2022-10-20T01:14:55.203Z,22.10
2022-10-20T01:17:32.161Z,22.10
2022-10-20T01:20:43.564Z,22.10
2022-10-20T01:24:01.612Z,22.00
2022-10-20T01:26:47.637Z,22.10
2022-10-20T01:29:26.048Z,22.10
2022-10-20T01:32:06.949Z,22.00
2022-10-20T01:34:42.532Z,22.10
2022-10-20T01:37:28.354Z,22.20
2022-10-20T01:40:14.940Z,22.00
2022-10-20T01:42:45.717Z,22.00
2022-10-20T01:45:18.771Z,21.90
2022-10-20T01:47:49.964Z,22.00
2022-10-20T01:50:21.037Z,21.90
2022-10-20T01:52:50.147Z,21.70
2022-10-20T01:55:20.165Z,21.80
2022-10-20T01:58:05.128Z,21.90
2022-10-20T02:00:38.021Z,22.00
2022-10-20T02:03:33.381Z,21.90
2022-10-20T02:06:15.884Z,21.90
2022-10-20T02:08:47.774Z,22.00
2022-10-20T02:11:23.882Z,21.90
2022-10-20T02:13:54.372Z,21.90
2022-10-20T02:16:31.170Z,21.90
2022-10-20T02:19:01.120Z,21.80
2022-10-20T02:21:30.284Z,21.70
2022-10-20T02:24:04.095Z,21.70
2022-10-20T02:26:35.459Z,21.60
2022-10-20T02:29:07.876Z,21.70
2022-10-20T02:31:38.228Z,21.80
2022-10-20T02:34:07.404Z,21.60
2022-10-20T02:36:40.987Z,21.70
2022-10-20T02:39:11.027Z,21.70
2022-10-20T02:41:40.260Z,21.60
2022-10-20T02:44:09.418Z,21.70
2022-10-20T02:46:39.780Z,21.70
2022-10-20T02:49:08.828Z,21.70
2022-10-20T02:51:37.738Z,21.60
2022-10-20T02:54:06.717Z,21.60
2022-10-20T02:56:35.653Z,21.60
2022-10-20T02:59:04.788Z,21.50
2022-10-20T03:01:33.745Z,21.50
2022-10-20T03:04:04.158Z,21.50
2022-10-20T03:06:33.442Z,21.40
2022-10-20T03:09:02.555Z,21.30
2022-10-20T03:11:31.501Z,21.40
2022-10-20T03:14:00.503Z,21.50
2022-10-20T03:16:29.540Z,21.50
2022-10-20T03:19:01.565Z,21.50
2022-10-20T03:21:35.345Z,21.50
2022-10-20T03:24:04.254Z,21.30
2022-10-20T03:26:33.536Z,21.20
2022-10-20T03:29:04.600Z,21.40
2022-10-20T03:31:33.619Z,21.50
2022-10-20T03:34:02.453Z,21.50
2022-10-20T03:36:33.515Z,21.50
2022-10-20T03:39:03.837Z,21.60
2022-10-20T03:41:32.733Z,21.60
2022-10-20T03:44:03.909Z,21.60
2022-10-20T03:46:33.006Z,21.60
2022-10-20T03:49:01.996Z,21.60
2022-10-20T03:51:30.982Z,21.50
2022-10-20T03:53:59.928Z,21.50
2022-10-20T03:56:30.351Z,21.60
2022-10-20T03:58:59.451Z,21.50
2022-10-20T04:01:32.488Z,21.60
2022-10-20T04:04:01.569Z,21.60
2022-10-20T04:06:30.627Z,21.60
2022-10-20T04:08:59.643Z,21.60
2022-10-20T04:11:30.048Z,21.70
2022-10-20T04:13:59.032Z,21.70
2022-10-20T04:16:28.384Z,21.50
2022-10-20T04:18:58.111Z,21.40
2022-10-20T04:21:27.059Z,21.60
2022-10-20T04:23:56.026Z,21.70
2022-10-20T04:26:27.136Z,21.70
2022-10-20T04:28:59.247Z,21.70
2022-10-20T04:31:28.539Z,21.60
2022-10-20T04:33:57.543Z,21.50
2022-10-20T04:36:26.460Z,21.60
2022-10-20T04:38:55.333Z,21.60
2022-10-20T04:41:24.446Z,21.60
2022-10-20T04:43:54.326Z,21.40
2022-10-20T04:49:12.236Z,21.50
2022-10-20T04:51:41.290Z,21.50
2022-10-20T04:54:10.350Z,21.50
2022-10-20T04:56:39.276Z,21.50
2022-10-20T04:59:11.096Z,21.50
2022-10-20T05:01:44.185Z,21.40
2022-10-20T05:04:13.651Z,21.20
2022-10-20T05:06:43.091Z,21.20
2022-10-20T05:09:17.277Z,21.20
2022-10-20T05:11:46.654Z,21.20
2022-10-20T05:14:15.600Z,21.30
2022-10-20T05:16:45.983Z,21.20
2022-10-20T05:19:15.350Z,21.30
2022-10-20T05:21:44.831Z,21.40
2022-10-20T05:24:19.838Z,21.40
2022-10-20T05:26:50.487Z,21.30
2022-10-20T05:29:19.428Z,21.30
2022-10-20T05:31:49.802Z,21.30
2022-10-20T05:34:18.857Z,21.30
2022-10-20T05:36:47.902Z,21.30
2022-10-20T05:39:16.910Z,21.30
2022-10-20T05:41:45.982Z,21.30
2022-10-20T05:44:15.690Z,21.20
2022-10-20T05:46:44.659Z,21.20
2022-10-20T05:49:21.613Z,21.20
2022-10-20T05:51:50.975Z,21.20
2022-10-20T05:54:19.890Z,21.20
2022-10-20T05:56:49.168Z,21.30
2022-10-20T05:59:18.297Z,21.20
2022-10-20T06:01:50.113Z,21.20
2022-10-20T06:04:23.899Z,21.20
2022-10-20T06:06:53.559Z,21.20
2022-10-20T06:09:23.381Z,21.20
2022-10-20T06:11:52.760Z,21.10
2022-10-20T06:14:22.987Z,21.20
2022-10-20T06:16:53.231Z,21.40
2022-10-20T06:19:24.265Z,21.30
2022-10-20T06:21:53.781Z,21.40
2022-10-20T06:24:22.625Z,21.30
2022-10-20T06:26:51.777Z,21.10
2022-10-20T06:29:20.942Z,21.40
2022-10-20T06:31:51.656Z,21.50
2022-10-20T06:34:26.313Z,21.60
2022-10-20T06:36:55.473Z,21.60
2022-10-20T06:39:25.980Z,21.70
2022-10-20T06:44:47.409Z,21.50
2022-10-20T06:47:16.386Z,21.70
2022-10-20T06:49:46.858Z,21.70
2022-10-20T06:52:15.949Z,21.70
2022-10-20T06:54:47.184Z,21.80
2022-10-20T06:57:16.290Z,21.90
2022-10-20T06:59:45.129Z,21.90
2022-10-20T07:02:14.198Z,21.90
2022-10-20T07:04:43.390Z,22.00
2022-10-20T07:07:13.845Z,21.80
2022-10-20T07:09:42.952Z,21.70
2022-10-20T07:12:12.408Z,21.90
2022-10-20T07:14:41.463Z,22.10
2022-10-20T07:17:10.471Z,22.20
2022-10-20T07:19:39.534Z,22.30
2022-10-20T07:22:08.662Z,22.20
2022-10-20T07:24:39.203Z,22.30
2022-10-20T07:27:08.171Z,22.40
2022-10-20T07:29:37.172Z,22.50
2022-10-20T07:32:06.418Z,22.50
2022-10-20T07:34:35.459Z,22.70
2022-10-20T07:37:04.578Z,22.70
2022-10-20T07:39:33.685Z,22.60
2022-10-20T07:42:04.249Z,22.50
2022-10-20T07:44:33.164Z,22.70
2022-10-20T07:47:02.057Z,22.80
2022-10-20T07:49:46.383Z,23.00
2022-10-20T07:52:16.863Z,23.00
2022-10-20T07:54:46.211Z,23.10
2022-10-20T07:57:16.708Z,23.10
2022-10-20T07:59:47.830Z,23.00
2022-10-20T08:02:17.105Z,23.00
2022-10-20T08:04:46.260Z,23.10
2022-10-20T08:07:15.573Z,23.30
2022-10-20T08:12:15.988Z,23.30
2022-10-20T08:14:57.746Z,23.30
2022-10-20T08:17:27.459Z,23.30
2022-10-20T08:20:17.580Z,23.50
2022-10-20T08:22:46.826Z,23.60
2022-10-20T08:25:16.627Z,23.60
2022-10-20T08:27:47.045Z,23.40
2022-10-20T08:30:23.904Z,23.30
2022-10-20T08:32:55.278Z,23.50
2022-10-20T08:35:25.232Z,23.50
2022-10-20T08:37:54.308Z,23.40
2022-10-20T08:40:26.730Z,23.20
2022-10-20T08:42:57.851Z,23.30
2022-10-20T08:45:29.388Z,23.30
2022-10-20T08:48:00.221Z,23.40
2022-10-20T08:50:31.087Z,23.40
2022-10-20T08:53:02.251Z,23.40
2022-10-20T08:55:33.204Z,23.40
2022-10-20T08:58:07.270Z,23.40
2022-10-20T09:00:41.460Z,23.30
2022-10-20T09:03:19.554Z,23.30
2022-10-20T09:05:53.504Z,23.20
2022-10-20T09:08:25.039Z,23.30
2022-10-20T09:10:56.726Z,23.40
2022-10-20T09:13:30.155Z,23.60
2022-10-20T09:16:04.016Z,23.40
2022-10-20T09:18:34.075Z,23.60
2022-10-20T09:21:05.650Z,23.40
2022-10-20T09:23:41.962Z,23.50
2022-10-20T09:26:30.439Z,23.60
2022-10-20T09:29:14.482Z,23.60
2022-10-20T09:31:46.164Z,23.40
2022-10-20T09:34:26.600Z,23.60
2022-10-20T09:36:59.587Z,23.70
2022-10-20T09:39:33.291Z,23.80
2022-10-20T09:42:05.878Z,24.00
2022-10-20T09:44:49.536Z,24.10
2022-10-20T09:47:20.495Z,24.10
2022-10-20T09:49:59.994Z,23.90
2022-10-20T09:52:35.123Z,23.60
2022-10-20T09:55:09.129Z,23.80
2022-10-20T09:57:38.180Z,23.90
2022-10-20T10:00:36.218Z,23.90
2022-10-20T10:03:24.665Z,23.80
2022-10-20T10:05:56.324Z,24.00
2022-10-20T10:08:27.912Z,24.20
2022-10-20T10:11:03.107Z,24.20
2022-10-20T10:13:38.590Z,24.10
2022-10-20T10:16:11.284Z,24.10
2022-10-20T10:18:41.325Z,24.30
2022-10-20T10:21:15.649Z,24.60
2022-10-20T10:23:53.474Z,24.60
2022-10-20T10:26:46.704Z,24.80
2022-10-20T10:29:23.478Z,24.80
2022-10-20T10:31:59.357Z,24.80
2022-10-20T10:34:45.230Z,24.60
2022-10-20T10:37:16.339Z,24.60
2022-10-20T10:39:45.641Z,24.50
2022-10-20T10:42:35.936Z,24.60
2022-10-20T10:45:20.640Z,24.60
2022-10-20T10:48:25.050Z,24.70
2022-10-20T10:51:00.391Z,24.80
2022-10-20T10:53:45.194Z,24.80
2022-10-20T10:56:26.489Z,25.10
2022-10-20T10:58:59.775Z,25.10
2022-10-20T11:01:50.372Z,25.20
2022-10-20T11:04:47.377Z,25.40
2022-10-20T11:07:32.153Z,25.40
2022-10-20T11:10:10.951Z,25.60
2022-10-20T11:12:53.146Z,25.40
2022-10-20T11:15:45.740Z,25.40
2022-10-20T11:18:23.769Z,25.30
2022-10-20T11:21:01.263Z,25.30
2022-10-20T11:24:03.992Z,25.50
2022-10-20T11:26:35.340Z,25.60
2022-10-20T11:29:07.292Z,25.50
2022-10-20T11:31:42.317Z,25.00
2022-10-20T11:34:17.442Z,24.90
2022-10-20T11:36:51.087Z,24.90
2022-10-20T11:39:27.637Z,25.00
2022-10-20T11:42:02.609Z,25.00
2022-10-20T11:44:38.640Z,25.10
2022-10-20T11:47:12.564Z,25.20
2022-10-20T11:49:42.568Z,25.10
2022-10-20T11:52:50.229Z,25.00
2022-10-20T11:55:49.768Z,25.00
2022-10-20T11:58:46.593Z,25.20
2022-10-20T12:01:33.709Z,25.10
2022-10-20T12:04:33.463Z,25.00
2022-10-20T12:07:19.206Z,24.80
2022-10-20T12:10:04.631Z,24.90
2022-10-20T12:12:43.735Z,24.90
2022-10-20T12:15:23.218Z,24.80
2022-10-20T12:17:53.678Z,24.90
2022-10-20T12:21:01.703Z,24.70
2022-10-20T12:24:15.549Z,24.80
2022-10-20T12:27:20.219Z,24.90
2022-10-20T12:29:55.293Z,24.70
2022-10-20T12:32:38.134Z,24.60
2022-10-20T12:35:32.817Z,24.90
2022-10-20T12:38:04.768Z,24.80
2022-10-20T12:40:35.712Z,24.80
2022-10-20T12:43:04.886Z,25.00
2022-10-20T12:45:44.504Z,24.90
2022-10-20T12:48:23.884Z,24.80
2022-10-20T12:50:53.834Z,24.70
2022-10-20T12:53:27.004Z,24.60
2022-10-20T12:55:59.992Z,24.50
2022-10-20T12:58:31.489Z,24.70
2022-10-20T13:01:19.816Z,24.90
2022-10-20T13:03:50.111Z,24.70
2022-10-20T13:06:42.211Z,24.50
2022-10-20T13:09:26.674Z,24.20
2022-10-20T13:12:06.323Z,24.40
2022-10-20T13:14:52.907Z,24.50
2022-10-20T13:17:39.141Z,24.50
2022-10-20T13:20:22.030Z,24.70
2022-10-20T13:22:54.476Z,24.60
2022-10-20T13:25:40.702Z,24.60
2022-10-20T13:28:20.487Z,24.70
2022-10-20T13:31:08.175Z,24.50
2022-10-20T13:34:03.349Z,24.60
2022-10-20T13:36:52.367Z,24.50
2022-10-20T13:39:31.061Z,24.70
2022-10-20T13:42:13.954Z,24.60
2022-10-20T13:44:59.993Z,24.70
2022-10-20T13:47:47.575Z,24.90
2022-10-20T13:50:22.371Z,24.90
2022-10-20T13:52:54.060Z,24.90
2022-10-20T13:55:25.738Z,24.90
2022-10-20T13:57:57.399Z,24.90
2022-10-20T14:00:28.836Z,25.10
2022-10-20T14:03:01.479Z,25.10
2022-10-20T14:05:39.312Z,25.10
2022-10-20T14:08:10.903Z,25.00
2022-10-20T14:10:46.533Z,25.10
2022-10-20T14:13:19.503Z,25.10
2022-10-20T14:15:50.905Z,25.10
2022-10-20T14:18:26.729Z,25.10
2022-10-20T14:21:05.014Z,25.10
2022-10-20T14:23:37.086Z,25.10
2022-10-20T14:26:08.813Z,25.20
2022-10-20T14:28:38.895Z,25.20
2022-10-20T14:31:10.096Z,25.10
2022-10-20T14:33:44.667Z,25.00
2022-10-20T14:36:22.067Z,25.10
2022-10-20T14:38:53.669Z,25.20
2022-10-20T14:41:28.039Z,25.30
2022-10-20T14:44:04.957Z,25.10
2022-10-20T14:46:40.815Z,25.10
2022-10-20T14:49:18.004Z,25.10
2022-10-20T14:51:57.505Z,25.10
2022-10-20T14:54:39.395Z,25.10
2022-10-20T14:57:42.168Z,25.20
2022-10-20T15:00:31.287Z,25.30
2022-10-20T15:03:03.651Z,25.10
2022-10-20T15:05:40.934Z,25.10
2022-10-20T15:08:18.723Z,25.10
2022-10-20T15:10:48.611Z,25.10
2022-10-20T15:13:27.865Z,25.20
2022-10-20T15:15:58.531Z,25.10
2022-10-20T15:18:29.381Z,24.80
2022-10-20T15:20:59.102Z,24.90
2022-10-20T15:23:30.235Z,25.00
2022-10-20T15:26:05.132Z,25.10
2022-10-20T15:28:38.553Z,25.10
2022-10-20T15:31:16.767Z,25.00
2022-10-20T15:33:45.783Z,24.90
2022-10-20T15:36:16.710Z,24.90
2022-10-20T15:38:47.613Z,25.00
2022-10-20T15:41:20.870Z,24.80
2022-10-20T15:43:50.068Z,24.80
2022-10-20T15:46:20.038Z,24.80
2022-10-20T15:48:49.135Z,24.80
2022-10-20T15:51:22.266Z,24.80
2022-10-20T15:53:53.140Z,24.90
2022-10-20T15:56:22.532Z,24.80
2022-10-20T15:58:51.938Z,24.90
2022-10-20T16:01:23.202Z,24.70
2022-10-20T16:03:53.291Z,24.70
2022-10-20T16:06:22.336Z,24.80
2022-10-20T16:08:53.272Z,24.80
2022-10-20T16:11:23.157Z,24.70
2022-10-20T16:13:52.242Z,24.70
2022-10-20T16:16:21.676Z,24.70
2022-10-20T16:18:50.958Z,24.80
2022-10-20T16:21:19.945Z,24.70
2022-10-20T16:23:48.912Z,24.70
2022-10-20T16:26:23.644Z,24.80
2022-10-20T16:28:52.736Z,24.70
2022-10-20T16:31:22.157Z,24.70
2022-10-20T16:33:51.333Z,24.60
2022-10-20T16:36:21.911Z,24.50
2022-10-20T16:38:56.840Z,24.60
2022-10-20T16:41:27.321Z,24.60
2022-10-20T16:43:58.874Z,24.60
2022-10-20T16:46:30.232Z,24.50
2022-10-20T16:48:59.288Z,24.30
2022-10-20T16:51:28.447Z,24.30
2022-10-20T16:54:02.884Z,24.20
2022-10-20T16:56:33.794Z,24.20
2022-10-20T16:59:03.089Z,24.30
2022-10-20T17:01:32.617Z,24.30
2022-10-20T17:04:01.799Z,24.30
2022-10-20T17:06:30.981Z,24.30
2022-10-20T17:09:00.887Z,24.10
2022-10-20T17:11:31.646Z,24.20
2022-10-20T17:14:02.305Z,24.20
2022-10-20T17:16:33.095Z,24.10
2022-10-20T17:19:03.831Z,24.00
2022-10-20T17:21:34.657Z,24.20
2022-10-20T17:24:03.956Z,24.20
2022-10-20T17:26:33.472Z,24.20
2022-10-20T17:29:06.244Z,24.20
2022-10-20T17:31:36.073Z,24.10
2022-10-20T17:34:05.746Z,24.00
2022-10-20T17:36:35.266Z,24.10
2022-10-20T17:39:08.778Z,24.00
2022-10-20T17:41:37.998Z,24.10
2022-10-20T17:44:09.621Z,24.00
2022-10-20T17:46:38.931Z,23.60
2022-10-20T17:49:08.061Z,23.50
2022-10-20T17:51:37.302Z,23.60
2022-10-20T17:54:08.816Z,23.60
2022-10-20T17:56:40.333Z,23.60
2022-10-20T18:01:46.073Z,23.60
2022-10-20T18:04:17.019Z,23.70
2022-10-20T18:06:47.528Z,23.40
2022-10-20T18:09:20.636Z,23.50
2022-10-20T18:11:51.944Z,23.50
2022-10-20T18:14:22.557Z,23.40
2022-10-20T18:16:51.721Z,23.30
2022-10-20T18:19:21.458Z,23.30
2022-10-20T18:21:50.568Z,23.40
2022-10-20T18:24:20.413Z,23.40
2022-10-20T18:26:49.440Z,23.40
2022-10-20T18:29:21.463Z,23.60
2022-10-20T18:31:52.302Z,23.50
2022-10-20T18:34:21.941Z,23.50
2022-10-20T18:36:53.784Z,23.40
2022-10-20T18:39:23.093Z,23.40
2022-10-20T18:41:54.781Z,23.40
2022-10-20T18:44:24.193Z,23.30
2022-10-20T18:46:59.814Z,23.30
2022-10-20T18:49:29.020Z,23.20
2022-10-20T18:51:57.963Z,23.20
2022-10-20T18:54:28.735Z,23.10
2022-10-20T18:56:57.725Z,23.10
2022-10-20T18:59:26.808Z,23.10
2022-10-20T19:01:57.462Z,23.00
2022-10-20T19:04:26.670Z,22.90
2022-10-20T19:06:56.489Z,23.10
2022-10-20T19:09:25.986Z,23.10
2022-10-20T19:11:55.899Z,23.10
2022-10-20T19:14:25.204Z,23.20
2022-10-20T19:16:54.170Z,23.20
2022-10-20T19:19:24.663Z,23.20
2022-10-20T19:21:53.694Z,23.10
2022-10-20T19:24:24.222Z,23.00
2022-10-20T19:27:21.345Z,23.10
2022-10-20T19:29:46.703Z,23.20
2022-10-20T19:32:15.846Z,23.10
2022-10-20T19:34:46.808Z,23.10
2022-10-20T19:37:15.999Z,23.10
2022-10-20T19:39:45.191Z,23.10
2022-10-20T19:42:14.207Z,23.30
2022-10-20T19:44:43.533Z,23.20
2022-10-20T19:47:12.995Z,23.30
2022-10-20T19:49:42.091Z,23.30
2022-10-20T19:52:13.543Z,23.20
2022-10-20T19:54:42.933Z,23.30
2022-10-20T19:57:11.908Z,23.10
2022-10-20T19:59:41.023Z,23.20
2022-10-20T20:02:11.255Z,23.00
2022-10-20T20:04:40.677Z,22.90
2022-10-20T20:07:09.896Z,23.00
2022-10-20T20:09:40.398Z,23.10
2022-10-20T20:12:10.074Z,22.90
2022-10-20T20:14:39.503Z,22.90
2022-10-20T20:17:10.917Z,22.90
2022-10-20T20:19:40.310Z,23.10
2022-10-20T20:22:09.391Z,23.00
2022-10-20T20:24:40.049Z,22.90
2022-10-20T20:27:09.264Z,23.00
2022-10-20T20:29:38.326Z,23.10
2022-10-20T20:32:07.584Z,22.90
2022-10-20T20:34:36.589Z,22.90
2022-10-20T20:37:08.080Z,22.90
2022-10-20T20:39:37.334Z,23.00
2022-10-20T20:42:08.374Z,23.10
2022-10-20T20:44:37.759Z,23.20
2022-10-20T20:47:06.914Z,23.30
2022-10-20T20:49:36.107Z,23.30
2022-10-20T20:52:05.167Z,23.30
2022-10-20T20:54:34.352Z,23.40
2022-10-20T20:57:03.446Z,23.40
2022-10-20T20:59:34.047Z,23.40
2022-10-20T21:02:03.215Z,23.30
2022-10-20T21:04:32.123Z,23.40
2022-10-20T21:07:02.707Z,23.40
2022-10-20T21:09:32.717Z,23.40
2022-10-20T21:12:01.749Z,23.30
2022-10-20T21:14:31.464Z,23.30
2022-10-20T21:17:02.239Z,23.30
2022-10-20T21:19:31.351Z,23.30
2022-10-20T21:22:01.536Z,23.30
2022-10-20T21:24:30.664Z,23.30
2022-10-20T21:26:59.643Z,23.10
2022-10-20T21:29:28.986Z,23.10
2022-10-20T21:31:58.665Z,23.10
2022-10-20T21:34:29.745Z,23.10
2022-10-20T21:36:58.864Z,23.00
2022-10-20T21:39:28.001Z,23.00
2022-10-20T21:41:59.455Z,22.90
2022-10-20T21:44:28.444Z,22.90
2022-10-20T21:46:57.466Z,22.90
2022-10-20T21:49:26.595Z,22.80
2022-10-20T21:51:58.435Z,22.80
2022-10-20T21:54:29.360Z,22.60
2022-10-20T21:56:58.765Z,22.60
2022-10-20T21:59:29.089Z,22.60
2022-10-20T22:02:00.051Z,22.70
2022-10-20T22:04:31.092Z,22.60
2022-10-20T22:07:01.622Z,22.50
2022-10-20T22:09:30.886Z,22.40
2022-10-20T22:11:59.942Z,22.50
2022-10-20T22:14:30.761Z,22.50
2022-10-20T22:17:00.063Z,22.50
2022-10-20T22:19:29.391Z,22.40
2022-10-20T22:21:59.834Z,22.40
2022-10-20T22:24:31.327Z,22.30
2022-10-20T22:27:00.637Z,22.30
2022-10-20T22:29:30.051Z,22.30
2022-10-20T22:32:01.416Z,22.30
2022-10-20T22:34:30.704Z,22.30
2022-10-20T22:36:59.657Z,22.50
2022-10-20T22:39:30.082Z,22.40
2022-10-20T22:41:59.171Z,22.40
2022-10-20T22:44:28.280Z,22.30
2022-10-20T22:46:59.700Z,22.20
2022-10-20T22:49:28.809Z,22.20
2022-10-20T22:51:57.914Z,22.20
2022-10-20T22:54:29.608Z,22.20
2022-10-20T22:57:00.082Z,22.10
2022-10-20T22:59:29.165Z,22.10
2022-10-20T23:01:58.304Z,22.00
2022-10-20T23:04:27.471Z,22.00
2022-10-20T23:06:59.173Z,22.10
2022-10-20T23:09:29.773Z,22.10
2022-10-20T23:12:00.424Z,22.00
2022-10-20T23:14:29.490Z,22.00
2022-10-20T23:16:58.453Z,22.00
2022-10-20T23:19:27.469Z,22.00
2022-10-20T23:21:56.565Z,22.00
2022-10-20T23:24:25.601Z,22.00
2022-10-20T23:26:54.629Z,22.00
2022-10-20T23:29:25.171Z,22.00
2022-10-20T23:31:54.185Z,22.00
2022-10-20T23:34:23.196Z,22.00
2022-10-20T23:36:52.310Z,22.00
2022-10-20T23:39:21.250Z,22.00
2022-10-20T23:41:50.276Z,22.00
2022-10-20T23:44:19.285Z,22.00
2022-10-20T23:46:52.224Z,22.00
2022-10-20T23:49:21.298Z,22.10
2022-10-20T23:51:50.308Z,22.10
2022-10-20T23:54:21.426Z,22.10
2022-10-20T23:56:50.423Z,22.10
2022-10-20T23:59:19.377Z,22.10
